To NAV CANADA Home Page Login to a new session Search on AWWS site Feedback and Comments Disclaimer Vers la page française équivalente Tips FAQ What's new on the site To the Forecasts and Observations / NOTAM section To "File a Flight Plan" website Publications and other links Update of the User's profile FIC Telephone Numbers My Weather Data Folder Route Weather Data Regional Weather Data Local Weather Data To the Forecasts and Observations / NOTAM section
Request Generated 05/04/2016 at 06:06:17 UTC . Weather information available at that time is displayed.

METAR/TAF

MARYS HARBOUR/NL    (show WxCam)

METAR CYMH 040600Z AUTO 11003KT 9SM FEW050 BKN075 OVC088 01/00 A2998
RMK SLP155=
METAR CYMH 040500Z AUTO VRB02KT 9SM OVC070 00/M00 A2999 RMK SLP158=
SPECI CYMH 040412Z AUTO 00000KT 9SM FEW050 BKN065 OVC074 00/M00 A3000
RMK SLP160=
METAR CYMH 040400Z AUTO 18004KT 150V220 9SM -RA FEW050 BKN065 OVC074
00/M00 A3000 RMK SLP161=

*** REMARK        : Forecast period has ended; this was the last TAF issued
*** REMARQUE : La période de prévision est échue; ceci était le dernier TAF qui a été émis
TAF CYMH 031939Z 0320/0403 17012G22KT P6SM SKC
FM040000 16008KT P6SM BKN120
RMK FCST BASED ON AUTO OBS. NXT FCST WILL BE ISSUED AT 040845Z=
Your time UTC time
Weather data provided by Environment Canada and NAV CANADA